Time;durP1;ratioP1;P1;durP2;ratioP2;P2;SDS_P1;SDS_P2;PMS_P1;PMS_P2;Temp;Humidity;BMP_temperature;BMP_pressure;BME280_temperature;BME280_humidity;BME280_pressure;Samples;Min_cycle;Max_cycle;Signal;HPM_P1;HPM_P2
2021/12/18 00:04:33;;;;;;;1999.90;999.90;;;;;;;8.36;72.24;103314.00;15687279;28;20040;-62
2021/12/18 00:12:12;;;;;;;1999.90;999.90;;;;;;;8.47;71.87;103299.13;15673379;28;20304;-62
2021/12/18 00:19:47;;;;;;;1999.90;999.90;;;;;;;8.46;72.23;103303.00;15715975;28;20508;-62
2021/12/18 00:27:24;;;;;;;1999.90;999.90;;;;;;;8.50;72.05;103292.19;15693334;28;20065;-60
2021/12/18 00:35:07;;;;;;;1999.90;999.90;;;;;;;8.36;72.09;103292.56;15673023;28;20047;-62
2021/12/18 00:42:46;;;;;;;1999.90;999.90;;;;;;;8.50;72.18;103290.25;15718743;28;20451;-62
2021/12/18 00:50:30;;;;;;;1999.90;999.90;;;;;;;8.31;72.69;103277.69;15732419;28;20045;-62
2021/12/18 00:58:16;;;;;;;1999.90;999.90;;;;;;;8.46;72.59;103275.19;15681840;28;20378;-63
2021/12/18 01:05:48;;;;;;;1999.90;999.90;;;;;;;8.63;72.02;103289.88;15721744;28;20049;-63
2021/12/18 01:13:33;;;;;;;1999.90;999.90;;;;;;;8.43;73.15;103297.94;15707097;28;20041;-63
2021/12/18 01:29:02;;;;;;;1999.90;999.90;;;;;;;8.70;73.11;103313.91;15714659;28;20045;-60
2021/12/18 01:36:56;;;;;;;1999.90;999.90;;;;;;;8.70;73.00;103313.91;15735155;28;20493;-60
2021/12/18 01:44:59;;;;;;;1999.90;999.90;;;;;;;8.65;73.75;103301.63;15697629;28;20175;-60
2021/12/18 01:52:40;;;;;;;1999.90;999.90;;;;;;;8.05;75.86;103277.31;15709134;28;20044;-59
2021/12/18 02:00:17;;;;;;;1999.90;999.90;;;;;;;8.04;77.14;103263.69;15714674;28;20084;-62
2021/12/18 02:07:54;;;;;;;1999.90;999.90;;;;;;;7.84;78.49;103253.06;15691169;28;20554;-62
2021/12/18 02:23:33;;;;;;;1999.90;999.90;;;;;;;7.99;78.18;103246.91;15696521;28;20091;-62
2021/12/18 02:31:08;;;;;;;1999.90;999.90;;;;;;;8.23;77.65;103267.00;15704875;28;20074;-62
2021/12/18 02:39:18;;;;;;;1999.90;999.90;;;;;;;8.33;76.67;103267.16;15699477;28;20531;-62
2021/12/18 02:46:51;;;;;;;1999.90;999.90;;;;;;;8.42;77.09;103262.84;15719272;28;20547;-64
2021/12/18 02:54:26;;;;;;;1999.90;999.90;;;;;;;8.58;76.54;103259.19;15692956;28;20041;-64
2021/12/18 03:02:02;;;;;;;1999.90;999.90;;;;;;;8.51;76.53;103244.63;15716440;28;20040;-62
2021/12/18 03:19:00;;;;;;;1999.90;999.90;;;;;;;8.43;76.77;103249.78;15685002;28;20567;-65
2021/12/18 03:25:55;;;;;;;1999.90;999.90;;;;;;;8.55;76.49;103243.03;15723517;28;20119;-64
2021/12/18 03:33:28;;;;;;;1999.90;999.90;;;;;;;8.53;76.59;103222.94;15823736;22;20452;-74
2021/12/18 03:41:04;;;;;;;1999.90;999.90;;;;;;;8.30;77.57;103212.88;15825357;28;20127;-73
2021/12/18 03:48:37;;;;;;;1999.90;999.90;;;;;;;7.99;78.43;103219.94;15827102;28;20043;-73
2021/12/18 03:56:11;;;;;;;1999.90;999.90;;;;;;;8.56;76.90;103219.66;15818336;28;20036;-73
2021/12/18 04:03:44;;;;;;;1999.90;999.90;;;;;;;8.54;77.21;103215.44;15813237;28;20040;-73
2021/12/18 04:11:18;;;;;;;1999.90;999.90;;;;;;;8.32;77.13;103207.03;15801271;28;20047;-73
2021/12/18 04:18:53;;;;;;;1999.90;999.90;;;;;;;8.33;77.55;103206.78;15843245;28;20562;-73
2021/12/18 04:26:29;;;;;;;1999.90;999.90;;;;;;;8.59;77.16;103205.22;15818297;28;20514;-73
2021/12/18 04:34:06;;;;;;;1999.90;999.90;;;;;;;8.69;77.01;103212.84;15853002;28;20289;-73
2021/12/18 04:41:43;;;;;;;1999.90;999.90;;;;;;;8.60;77.24;103214.41;15842574;28;20055;-73
2021/12/18 04:49:20;;;;;;;1999.90;999.90;;;;;;;8.81;76.67;103207.97;15817555;28;20135;-72
2021/12/18 04:56:57;;;;;;;1999.90;999.90;;;;;;;8.85;76.68;103211.91;15825290;28;20090;-73
2021/12/18 05:04:33;;;;;;;1999.90;999.90;;;;;;;8.94;76.37;103203.94;15835961;28;20063;-72
2021/12/18 05:12:11;;;;;;;1999.90;999.90;;;;;;;8.82;76.95;103190.16;15794743;28;20055;-73
2021/12/18 05:19:49;;;;;;;1999.90;999.90;;;;;;;8.55;78.36;103201.28;15844519;28;20383;-72
2021/12/18 05:27:26;;;;;;;1999.90;999.90;;;;;;;8.64;78.12;103204.41;15841850;28;20044;-72
2021/12/18 05:35:01;;;;;;;1999.90;999.90;;;;;;;8.32;79.17;103201.47;15798832;28;20066;-72
2021/12/18 05:42:43;;;;;;;1999.90;999.90;;;;;;;8.58;78.30;103206.31;15806068;28;20370;-72
2021/12/18 05:50:29;;;;;;;1999.90;999.90;;;;;;;8.57;78.43;103206.56;15838262;28;20047;-72
2021/12/18 05:58:06;;;;;;;1999.90;999.90;;;;;;;8.63;78.07;103209.16;15849385;28;20144;-73
2021/12/18 06:05:42;;;;;;;1999.90;999.90;;;;;;;8.72;77.59;103203.97;15808322;28;20118;-72
2021/12/18 06:13:38;;;;;;;1999.90;999.90;;;;;;;8.69;77.73;103201.72;15836965;28;20056;-72
2021/12/18 06:21:14;;;;;;;1999.90;999.90;;;;;;;8.53;78.59;103200.66;15814646;28;20192;-73
2021/12/18 06:28:48;;;;;;;1999.90;999.90;;;;;;;8.44;78.84;103187.47;15824931;28;20058;-73
2021/12/18 06:36:24;;;;;;;1999.90;999.90;;;;;;;8.49;78.59;103182.81;15787270;27;20178;-72
2021/12/18 06:43:58;;;;;;;1999.90;999.90;;;;;;;8.60;78.11;103181.84;15831150;28;20047;-73
2021/12/18 06:51:33;;;;;;;1999.90;999.90;;;;;;;8.56;78.09;103179.84;15861278;28;20055;-72
2021/12/18 06:59:11;;;;;;;1999.90;999.90;;;;;;;8.31;79.12;103174.75;15826383;28;20055;-72
2021/12/18 07:06:48;;;;;;;1999.90;999.90;;;;;;;8.14;80.07;103169.25;15845244;28;20503;-73
2021/12/18 07:14:36;;;;;;;1999.90;999.90;;;;;;;8.07;79.95;103163.88;15862693;28;20043;-73
2021/12/18 07:22:17;;;;;;;1999.90;999.90;;;;;;;8.34;79.62;103172.34;15802907;28;20131;-73
2021/12/18 07:30:09;;;;;;;1999.90;999.90;;;;;;;8.41;79.07;103162.94;15869731;28;20605;-72
2021/12/18 07:37:48;;;;;;;1999.90;999.90;;;;;;;8.36;78.71;103159.00;15834687;28;20411;-74
2021/12/18 07:45:22;;;;;;;1999.90;999.90;;;;;;;8.73;77.96;103154.69;15847675;28;20072;-74
2021/12/18 07:53:02;;;;;;;1999.90;999.90;;;;;;;8.34;79.22;103161.22;15857026;28;20492;-72
2021/12/18 08:00:50;;;;;;;1999.90;999.90;;;;;;;8.38;79.13;103153.19;15864441;28;20432;-72
2021/12/18 08:08:23;;;;;;;1999.90;999.90;;;;;;;8.26;80.27;103144.94;15846780;28;20040;-72
2021/12/18 08:15:59;;;;;;;1999.90;999.90;;;;;;;8.41;79.75;103127.63;15818294;28;20054;-72
2021/12/18 08:23:36;;;;;;;1999.90;999.90;;;;;;;8.29;80.90;103116.59;15842949;28;20051;-72
2021/12/18 08:31:13;;;;;;;1999.90;999.90;;;;;;;8.45;80.39;103120.44;15818613;28;20066;-72
2021/12/18 08:38:49;;;;;;;1999.90;999.90;;;;;;;8.22;80.65;103115.94;15850919;28;20040;-72
2021/12/18 08:46:23;;;;;;;1999.90;999.90;;;;;;;8.45;80.15;103112.09;15849868;28;20040;-72
2021/12/18 08:53:59;;;;;;;1999.90;999.90;;;;;;;8.32;80.59;103112.44;15847321;28;20135;-72
2021/12/18 09:01:36;;;;;;;1999.90;999.90;;;;;;;7.78;81.67;103112.28;15798992;28;20078;-72
2021/12/18 09:09:09;;;;;;;1999.90;999.90;;;;;;;7.97;80.14;103116.47;15813312;28;20493;-71
2021/12/18 09:16:42;;;;;;;1999.90;999.90;;;;;;;8.39;79.21;103124.25;15835136;28;20115;-72
2021/12/18 09:24:21;;;;;;;1999.90;999.90;;;;;;;8.09;80.40;103111.63;15846480;28;20495;-72
2021/12/18 09:31:55;;;;;;;1999.90;999.90;;;;;;;8.52;79.08;103109.94;15804507;28;20040;-72
2021/12/18 09:39:29;;;;;;;1999.90;999.90;;;;;;;8.92;78.37;103100.31;15846189;28;20485;-72
2021/12/18 09:47:07;;;;;;;1999.90;999.90;;;;;;;8.73;79.33;103085.09;15821336;28;20492;-72
2021/12/18 09:54:50;;;;;;;1999.90;999.90;;;;;;;8.79;79.47;103084.06;15836110;28;20044;-72
2021/12/18 10:02:32;;;;;;;1999.90;999.90;;;;;;;8.78;80.50;103074.03;15851706;28;20461;-72
2021/12/18 10:10:10;;;;;;;1999.90;999.90;;;;;;;8.28;82.37;103072.34;15873648;28;20042;-72
2021/12/18 10:17:44;;;;;;;1999.90;999.90;;;;;;;8.73;80.87;103062.81;15845416;28;20086;-72
2021/12/18 10:25:37;;;;;;;1999.90;999.90;;;;;;;8.84;80.61;103059.03;15869651;28;20048;-72
2021/12/18 10:33:12;;;;;;;1999.90;999.90;;;;;;;8.60;81.21;103062.16;15851334;28;20498;-72
2021/12/18 10:40:47;;;;;;;1999.90;999.90;;;;;;;8.98;79.98;103054.72;15816024;28;20131;-72
2021/12/18 10:48:23;;;;;;;1999.90;999.90;;;;;;;8.72;81.13;103034.16;15788721;28;20056;-72
2021/12/18 10:56:32;;;;;;;1999.90;999.90;;;;;;;8.70;81.60;103022.44;15790127;28;20424;-72
2021/12/18 11:04:18;;;;;;;1999.90;999.90;;;;;;;8.81;80.56;103013.06;15843002;28;20036;-72
2021/12/18 11:20:09;;;;;;;1999.90;999.90;;;;;;;8.82;81.80;102983.28;15868464;28;20044;-73
2021/12/18 11:27:52;;;;;;;1999.90;999.90;;;;;;;9.11;81.20;102973.47;15802758;28;20100;-72
2021/12/18 11:35:42;;;;;;;1999.90;999.90;;;;;;;8.94;81.52;102965.28;15850376;28;20055;-72
2021/12/18 11:43:36;;;;;;;1999.90;999.90;;;;;;;8.91;81.50;102959.41;15811127;28;20055;-72
2021/12/18 11:51:15;;;;;;;1999.90;999.90;;;;;;;9.27;80.50;102946.53;15784035;28;20128;-72
2021/12/18 11:58:58;;;;;;;1999.90;999.90;;;;;;;9.21;79.56;102936.50;15803331;28;20528;-72
2021/12/18 12:06:42;;;;;;;1999.90;999.90;;;;;;;9.36;78.88;102916.22;15770251;28;20154;-73
2021/12/18 12:14:22;;;;;;;1999.90;999.90;;;;;;;9.55;78.65;102928.56;15767862;28;20090;-73
2021/12/18 12:21:58;;;;;;;1999.90;999.90;;;;;;;9.30;79.72;102920.09;15827691;28;20082;-72
2021/12/18 12:29:45;;;;;;;1999.90;999.90;;;;;;;9.00;80.42;102913.25;15852928;28;20039;-72
2021/12/18 12:37:58;;;;;;;1999.90;999.90;;;;;;;9.08;80.29;102906.34;15804477;28;20143;-72
2021/12/18 12:46:06;;;;;;;1999.90;999.90;;;;;;;8.84;81.26;102887.25;15778537;28;20156;-72
2021/12/18 12:53:56;;;;;;;1999.90;999.90;;;;;;;9.11;81.06;102875.97;15858732;28;20451;-72
2021/12/18 13:01:45;;;;;;;1999.90;999.90;;;;;;;9.22;81.27;102849.84;15855785;28;20040;-72
2021/12/18 13:09:31;;;;;;;1999.90;999.90;;;;;;;9.07;81.31;102852.59;15826580;28;20140;-72
2021/12/18 13:17:29;;;;;;;1999.90;999.90;;;;;;;9.04;81.96;102829.97;15807395;28;20400;-72
2021/12/18 13:25:08;;;;;;;1999.90;999.90;;;;;;;9.33;81.05;102828.44;15772194;28;20048;-71
2021/12/18 13:32:51;;;;;;;1999.90;999.90;;;;;;;9.20;81.78;102815.88;15787906;28;20068;-72
2021/12/18 13:40:26;;;;;;;1999.90;999.90;;;;;;;9.19;82.05;102814.19;15791111;28;20491;-72
2021/12/18 13:48:02;;;;;;;1999.90;999.90;;;;;;;9.50;80.68;102808.72;15852022;28;20055;-72
2021/12/18 13:55:41;;;;;;;1999.90;999.90;;;;;;;9.33;81.87;102806.16;15850134;28;20526;-72
2021/12/18 14:03:18;;;;;;;1999.90;999.90;;;;;;;9.33;81.28;102796.94;15867973;28;20434;-72
2021/12/18 14:10:53;;;;;;;1999.90;999.90;;;;;;;9.24;81.24;102786.34;15850080;28;20046;-72
2021/12/18 14:18:35;;;;;;;1999.90;999.90;;;;;;;9.21;81.77;102788.84;15868361;28;20047;-73
2021/12/18 14:26:19;;;;;;;1999.90;999.90;;;;;;;9.18;81.33;102761.53;15867308;28;20105;-72
2021/12/18 14:33:53;;;;;;;1999.90;999.90;;;;;;;9.47;80.42;102767.44;15867713;28;20116;-72
2021/12/18 14:41:27;;;;;;;1999.90;999.90;;;;;;;9.41;80.13;102768.56;15830215;28;20096;-72
2021/12/18 14:49:10;;;;;;;1999.90;999.90;;;;;;;9.49;80.43;102762.44;15832087;28;20043;-72
2021/12/18 14:56:44;;;;;;;1999.90;999.90;;;;;;;9.47;80.23;102759.06;15829886;28;20475;-71
2021/12/18 15:04:20;;;;;;;1999.90;999.90;;;;;;;9.39;80.61;102756.84;15838250;28;20048;-72
2021/12/18 15:11:54;;;;;;;1999.90;999.90;;;;;;;9.47;80.21;102756.28;15809592;28;20296;-72
2021/12/18 15:19:29;;;;;;;1999.90;999.90;;;;;;;9.50;80.02;102742.66;15787573;28;20040;-73
2021/12/18 15:27:08;;;;;;;1999.90;999.90;;;;;;;9.36;81.31;102749.84;15802654;28;20123;-72
2021/12/18 15:34:49;;;;;;;1999.90;999.90;;;;;;;9.24;81.55;102740.91;15785624;28;20147;-72
2021/12/18 15:42:32;;;;;;;1999.90;999.90;;;;;;;9.29;81.66;102720.59;15838166;28;20043;-71
2021/12/18 15:50:07;;;;;;;1999.90;999.90;;;;;;;9.37;81.94;102712.50;15865123;28;20039;-72
2021/12/18 15:57:54;;;;;;;1999.90;999.90;;;;;;;9.20;82.34;102710.00;15846650;28;20047;-73
2021/12/18 16:05:28;;;;;;;1999.90;999.90;;;;;;;9.31;82.48;102690.50;15864145;28;20098;-73
2021/12/18 16:13:07;;;;;;;1999.90;999.90;;;;;;;9.25;83.04;102678.50;15865801;28;20461;-72
2021/12/18 16:20:44;;;;;;;1999.90;999.90;;;;;;;9.23;82.71;102670.44;15849302;28;20032;-72
2021/12/18 16:28:18;;;;;;;;;;;;;;;9.37;82.36;102678.25;15873308;28;20039;-71
2021/12/18 16:35:51;;;;;;;1999.90;999.90;;;;;;;9.36;82.41;102682.16;15847012;28;20022;-73
2021/12/18 16:43:25;;;;;;;1999.90;999.90;;;;;;;9.35;81.88;102683.25;15816880;28;20048;-73
2021/12/18 16:50:58;;;;;;;1999.90;999.90;;;;;;;9.21;81.92;102663.47;15856831;22;20071;-83
2021/12/18 16:58:35;;;;;;;1999.90;999.90;;;;;;;9.09;81.99;102660.97;15912387;28;20085;-83
2021/12/18 17:06:08;;;;;;;1999.90;999.90;;;;;;;8.95;81.72;102630.00;15898339;28;20293;-82
2021/12/18 17:13:56;;;;;;;1999.90;999.90;;;;;;;9.50;80.01;102664.63;15911674;28;20115;-83
2021/12/18 17:21:29;;;;;;;1999.90;999.90;;;;;;;9.56;79.21;102662.66;15887644;28;20046;-82
2021/12/18 17:29:04;;;;;;;1999.90;999.90;;;;;;;9.56;79.78;102651.50;15873861;28;20506;-83
2021/12/18 17:36:40;;;;;;;1999.90;999.90;;;;;;;9.61;80.01;102673.81;15864443;28;20052;-82
2021/12/18 17:44:22;;;;;;;1999.90;999.90;;;;;;;9.67;79.68;102650.38;15890463;28;20097;-82
2021/12/18 17:51:55;;;;;;;1999.90;999.90;;;;;;;9.77;79.76;102630.00;15850234;28;20074;-83
2021/12/18 17:59:31;;;;;;;1999.90;999.90;;;;;;;9.25;81.64;102603.28;15876542;28;20040;-82
2021/12/18 18:07:07;;;;;;;1999.90;999.90;;;;;;;9.36;82.01;102593.81;15878897;28;20040;-82
2021/12/18 18:14:45;;;;;;;1999.90;999.90;;;;;;;9.62;80.79;102591.84;15867857;28;20061;-82
2021/12/18 18:22:50;;;;;;;1999.90;999.90;;;;;;;9.15;82.11;102570.69;15877914;28;20044;-81
2021/12/18 18:30:44;;;;;;;1999.90;999.90;;;;;;;9.51;81.88;102582.66;15865771;28;20047;-83
2021/12/18 18:38:43;;;;;;;1999.90;999.90;;;;;;;9.17;83.10;102571.28;15866154;28;20044;-83
2021/12/18 18:46:25;;;;;;;1999.90;999.90;;;;;;;9.37;82.65;102562.03;15798711;28;20036;-83
2021/12/18 18:54:04;;;;;;;1999.90;999.90;;;;;;;9.48;82.33;102543.38;15802248;28;20083;-83
2021/12/18 19:01:40;;;;;;;1999.90;999.90;;;;;;;9.39;83.00;102539.50;15796781;28;20040;-84
2021/12/18 19:09:15;;;;;;;1999.90;999.90;;;;;;;9.71;81.54;102540.00;15811350;28;20052;-83
2021/12/18 19:16:51;;;;;;;1999.90;999.90;;;;;;;9.54;81.35;102489.28;15841332;28;20028;-83
2021/12/18 19:24:36;;;;;;;1999.90;999.90;;;;;;;9.87;80.30;102504.50;15855149;28;20028;-81
2021/12/18 19:32:17;;;;;;;1999.90;999.90;;;;;;;9.68;81.14;102504.28;15863895;27;20043;-81
2021/12/18 19:39:52;;;;;;;1999.90;999.90;;;;;;;9.90;80.61;102514.25;15878631;27;20039;-82
2021/12/18 19:47:30;;;;;;;1999.90;999.90;;;;;;;10.07;79.23;102486.84;15834194;28;20036;-83
2021/12/18 19:55:04;;;;;;;1999.90;999.90;;;;;;;9.99;79.03;102467.91;15821666;28;20038;-82
2021/12/18 20:02:58;;;;;;;1999.90;999.90;;;;;;;9.96;79.74;102472.13;15869721;28;20040;-82
2021/12/18 20:10:30;;;;;;;;;;;;;;;9.70;80.44;102468.63;15830206;28;20270;-82
2021/12/18 20:18:05;;;;;;;1999.90;999.90;;;;;;;9.82;80.38;102446.81;15845362;28;19923;-82
2021/12/18 20:25:40;;;;;;;1999.90;999.90;;;;;;;9.96;79.92;102430.28;15879354;28;20455;-82
2021/12/18 20:33:15;;;;;;;1999.90;999.90;;;;;;;9.98;79.52;102433.63;15857914;28;20040;-82
2021/12/18 20:40:48;;;;;;;1999.90;999.90;;;;;;;9.83;79.71;102417.81;15828853;28;20055;-82
2021/12/18 20:48:27;;;;;;;1999.90;999.90;;;;;;;10.03;78.84;102410.47;15867820;28;20359;-82
2021/12/18 20:56:01;;;;;;;1999.90;999.90;;;;;;;9.74;79.90;102405.59;15802812;28;20056;-83
2021/12/18 21:03:36;;;;;;;1999.90;999.90;;;;;;;10.14;78.42;102403.69;15863168;28;20058;-83
2021/12/18 21:11:16;;;;;;;1999.90;999.90;;;;;;;9.84;78.94;102397.16;15804444;28;20123;-83
2021/12/18 21:18:55;;;;;;;1999.90;999.90;;;;;;;10.16;77.40;102397.81;15849040;28;20051;-83
2021/12/18 21:26:33;;;;;;;1999.90;999.90;;;;;;;9.91;77.89;102394.06;15838589;28;20526;-84
2021/12/18 21:34:18;;;;;;;1999.90;999.90;;;;;;;9.89;77.11;102373.16;15821996;28;20045;-83
2021/12/18 21:41:56;;;;;;;1999.90;999.90;;;;;;;9.78;76.51;102367.63;15892474;28;20075;-81
2021/12/18 21:49:42;;;;;;;1999.90;999.90;;;;;;;9.91;76.16;102363.41;15868490;28;20111;-82
2021/12/18 21:57:18;;;;;;;1999.90;999.90;;;;;;;9.83;76.06;102377.94;15866957;28;20069;-82
2021/12/18 22:04:53;;;;;;;1999.90;999.90;;;;;;;9.83;75.71;102353.69;15879087;28;20046;-81
2021/12/18 22:12:31;;;;;;;1999.90;999.90;;;;;;;9.69;75.42;102349.88;15854874;27;20072;-83
2021/12/18 22:20:21;;;;;;;1999.90;999.90;;;;;;;9.58;75.64;102339.03;15846054;28;20100;-83
2021/12/18 22:27:58;;;;;;;1999.90;999.90;;;;;;;9.67;74.59;102323.38;15826963;28;20405;-83
2021/12/18 22:35:33;;;;;;;1999.90;999.90;;;;;;;9.19;75.21;102315.56;15848915;28;20051;-82
2021/12/18 22:43:13;;;;;;;1999.90;999.90;;;;;;;9.74;73.70;102308.00;15835662;28;20063;-84
2021/12/18 22:50:48;;;;;;;1999.90;999.90;;;;;;;9.67;74.58;102304.72;15827183;28;20066;-83
2021/12/18 22:58:26;;;;;;;1999.90;999.90;;;;;;;9.58;74.21;102300.03;15876726;28;20048;-82
2021/12/18 23:06:02;;;;;;;1999.90;999.90;;;;;;;9.54;74.09;102288.63;15790591;22;20044;-61
2021/12/18 23:21:34;;;;;;;1999.90;999.90;;;;;;;9.65;73.61;102281.88;15597223;28;20045;-62
2021/12/18 23:29:19;;;;;;;1999.90;999.90;;;;;;;9.68;73.44;102288.81;15560665;28;20058;-64
2021/12/18 23:37:03;;;;;;;1999.90;999.90;;;;;;;9.62;73.85;102250.97;15579367;28;20403;-63
2021/12/18 23:53:00;;;;;;;1999.90;999.90;;;;;;;9.65;73.39;102234.47;15579966;28;20077;-64
